Time,TemperatureF,DewpointF,PressureIn,WindDirection,WindDirectionDegrees,WindSpeedMPH,WindSpeedGustMPH,Humidity,HourlyPrecipIn,Conditions,Clouds,dailyrainin,SolarRadiationWatts/m^2,SoftwareType,DateUTC
2013-11-21 00:01:00,32.0,30.0,-100.00,SSW,211,4.0,8.0,93,0.00,,,0.00,0.000000,,2013-11-21 06:01:00,
2013-11-21 00:43:00,32.0,30.0,-100.00,SSW,211,4.0,8.0,93,0.00,,,0.00,0.000000,,2013-11-21 06:43:00,
2013-11-21 00:52:00,32.0,30.0,-100.00,SSW,211,4.0,8.0,93,0.00,,,0.00,0.000000,,2013-11-21 06:52:00,
2013-11-21 01:01:00,32.0,30.0,-100.00,SW,215,3.0,9.0,93,0.00,,,0.00,0.000000,,2013-11-21 07:01:00,
2013-11-21 01:42:00,32.0,30.0,-100.00,SW,215,3.0,9.0,93,0.00,,,0.00,0.000000,,2013-11-21 07:42:00,
2013-11-21 01:52:00,32.0,30.0,-100.00,SW,215,3.0,9.0,93,0.00,,,0.00,0.000000,,2013-11-21 07:52:00,
2013-11-21 02:01:00,32.0,30.0,-100.00,SW,224,5.0,9.0,93,0.00,,,0.00,0.000000,,2013-11-21 08:01:00,
2013-11-21 02:42:00,32.0,30.0,-100.00,SW,224,5.0,9.0,93,0.00,,,0.00,0.000000,,2013-11-21 08:42:00,
2013-11-21 02:52:00,32.0,30.0,-100.00,SW,224,5.0,9.0,93,0.00,,,0.00,0.000000,,2013-11-21 08:52:00,
2013-11-21 03:01:00,32.0,31.0,-100.00,SW,231,4.0,9.0,95,0.00,,,0.00,0.000000,,2013-11-21 09:01:00,
2013-11-21 03:43:00,32.0,31.0,-100.00,SW,231,4.0,9.0,95,0.00,,,0.00,0.000000,,2013-11-21 09:43:00,
2013-11-21 03:53:00,32.0,31.0,-100.00,SW,231,4.0,9.0,95,0.00,,,0.00,0.000000,,2013-11-21 09:53:00,
2013-11-21 04:01:00,32.0,31.0,-100.00,WSW,241,3.0,9.0,97,0.00,,,0.00,0.000000,,2013-11-21 10:01:00,
2013-11-21 04:42:00,32.0,31.0,-100.00,WSW,241,3.0,9.0,97,0.00,,,0.00,0.000000,,2013-11-21 10:42:00,
2013-11-21 04:53:00,32.0,31.0,-100.00,WSW,241,3.0,9.0,97,0.00,,,0.00,0.000000,,2013-11-21 10:53:00,
2013-11-21 05:01:00,32.0,31.0,-100.00,WSW,250,3.0,6.0,97,0.00,,,0.00,0.000000,,2013-11-21 11:01:00,
2013-11-21 05:43:00,32.0,31.0,-100.00,WSW,250,3.0,6.0,97,0.00,,,0.00,0.000000,,2013-11-21 11:43:00,
2013-11-21 05:52:00,32.0,31.0,-100.00,WSW,250,3.0,6.0,97,0.00,,,0.00,0.000000,,2013-11-21 11:52:00,
2013-11-21 06:01:00,32.0,32.0,-100.00,WSW,242,2.0,6.0,98,0.00,,,0.00,0.000000,,2013-11-21 12:01:00,
2013-11-21 06:42:00,32.0,32.0,-100.00,WSW,242,2.0,6.0,98,0.00,,,0.00,0.000000,,2013-11-21 12:42:00,
2013-11-21 06:52:00,32.0,32.0,-100.00,WSW,242,2.0,6.0,98,0.00,,,0.00,0.000000,,2013-11-21 12:52:00,
2013-11-21 07:01:00,32.0,32.0,-100.00,WSW,238,1.0,5.0,98,0.00,,,0.00,0.000000,,2013-11-21 13:01:00,
2013-11-21 07:22:00,32.0,32.0,-100.00,WSW,238,1.0,5.0,98,0.00,,,0.00,0.000000,,2013-11-21 13:22:00,
2013-11-21 07:32:00,32.0,32.0,-100.00,WSW,238,1.0,5.0,98,0.00,,,0.00,0.000000,,2013-11-21 13:32:00,
2013-11-21 07:42:00,32.0,32.0,-100.00,WSW,238,1.0,5.0,98,0.00,,,0.00,0.000000,,2013-11-21 13:42:00,
2013-11-21 07:52:00,32.0,32.0,-100.00,WSW,238,1.0,5.0,98,0.00,,,0.00,0.000000,,2013-11-21 13:52:00,
2013-11-21 08:01:00,32.0,31.0,-100.00,WSW,254,1.0,4.0,97,0.00,,,0.00,2.000000,,2013-11-21 14:01:00,
2013-11-21 08:42:00,32.0,31.0,-100.00,WSW,254,1.0,4.0,97,0.00,,,0.00,2.000000,,2013-11-21 14:42:00,
2013-11-21 08:52:00,32.0,31.0,-100.00,WSW,254,1.0,4.0,97,0.00,,,0.00,2.000000,,2013-11-21 14:52:00,
2013-11-21 09:01:00,33.0,32.0,-100.00,WSW,252,3.0,6.0,97,0.00,,,0.00,12.000000,,2013-11-21 15:01:00,
2013-11-21 09:44:00,33.0,32.0,-100.00,WSW,252,3.0,6.0,97,0.00,,,0.00,12.000000,,2013-11-21 15:44:00,
2013-11-21 09:53:00,33.0,32.0,-100.00,WSW,252,3.0,6.0,97,0.00,,,0.00,12.000000,,2013-11-21 15:53:00,
2013-11-21 10:01:00,33.0,32.0,-100.00,West,263,2.0,6.0,95,0.00,,,0.00,42.000000,,2013-11-21 16:01:00,
2013-11-21 10:42:00,33.0,32.0,-100.00,West,263,2.0,6.0,95,0.00,,,0.00,42.000000,,2013-11-21 16:42:00,
2013-11-21 10:53:00,33.0,32.0,-100.00,West,263,2.0,6.0,95,0.00,,,0.00,42.000000,,2013-11-21 16:53:00,
2013-11-21 11:01:00,34.0,32.0,-100.00,West,273,2.0,6.0,94,0.00,,,0.00,57.000000,,2013-11-21 17:01:00,
2013-11-21 11:42:00,34.0,32.0,-100.00,West,273,2.0,6.0,94,0.00,,,0.00,57.000000,,2013-11-21 17:42:00,
2013-11-21 11:52:00,34.0,32.0,-100.00,West,273,2.0,6.0,94,0.00,,,0.00,57.000000,,2013-11-21 17:52:00,
2013-11-21 12:01:00,33.0,32.0,-100.00,West,272,3.0,6.0,96,0.00,,,0.00,33.000000,,2013-11-21 18:01:00,
2013-11-21 12:42:00,33.0,32.0,-100.00,West,272,3.0,6.0,96,0.00,,,0.00,33.000000,,2013-11-21 18:42:00,
2013-11-21 12:52:00,33.0,32.0,-100.00,West,272,3.0,6.0,96,0.00,,,0.00,33.000000,,2013-11-21 18:52:00,
2013-11-21 13:01:00,34.0,34.0,-100.00,NW,308,5.0,9.0,98,0.00,,,0.00,23.000000,,2013-11-21 19:01:00,
2013-11-21 13:22:00,34.0,34.0,-100.00,NW,308,5.0,9.0,98,0.00,,,0.00,23.000000,,2013-11-21 19:22:00,
2013-11-21 13:33:00,34.0,34.0,-100.00,NW,308,5.0,9.0,98,0.00,,,0.00,23.000000,,2013-11-21 19:33:00,
2013-11-21 13:42:00,34.0,34.0,-100.00,NW,308,5.0,9.0,98,0.00,,,0.00,23.000000,,2013-11-21 19:42:00,
2013-11-21 13:52:00,34.0,34.0,-100.00,NW,308,5.0,9.0,98,0.00,,,0.00,23.000000,,2013-11-21 19:52:00,
2013-11-21 14:01:00,32.0,30.0,-100.00,NW,323,8.0,19.0,93,0.00,,,0.00,21.000000,,2013-11-21 20:01:00,
2013-11-21 14:22:00,32.0,30.0,-100.00,NW,323,8.0,19.0,93,0.00,,,0.00,21.000000,,2013-11-21 20:22:00,
2013-11-21 14:32:00,32.0,30.0,-100.00,NW,323,8.0,19.0,93,0.00,,,0.00,21.000000,,2013-11-21 20:32:00,
2013-11-21 14:42:00,32.0,30.0,-100.00,NW,323,8.0,19.0,93,0.00,,,0.00,21.000000,,2013-11-21 20:42:00,
2013-11-21 14:52:00,32.0,30.0,-100.00,NW,323,8.0,19.0,93,0.00,,,0.00,21.000000,,2013-11-21 20:52:00,
2013-11-21 15:01:00,30.0,28.0,-100.00,NNW,333,7.0,16.0,92,0.00,,,0.00,18.000000,,2013-11-21 21:01:00,
2013-11-21 15:22:00,30.0,28.0,-100.00,NNW,333,7.0,16.0,92,0.00,,,0.00,18.000000,,2013-11-21 21:22:00,
2013-11-21 15:34:00,30.0,28.0,-100.00,NNW,333,7.0,16.0,92,0.00,,,0.00,18.000000,,2013-11-21 21:34:00,
2013-11-21 15:43:00,30.0,28.0,-100.00,NNW,333,7.0,16.0,92,0.00,,,0.00,18.000000,,2013-11-21 21:43:00,
2013-11-21 15:54:00,30.0,28.0,-100.00,NNW,333,7.0,16.0,92,0.00,,,0.00,18.000000,,2013-11-21 21:54:00,
2013-11-21 16:01:00,29.0,27.0,-100.00,NNW,328,8.0,15.0,92,0.00,,,0.00,7.000000,,2013-11-21 22:01:00,
2013-11-21 16:23:00,29.0,27.0,-100.00,NNW,328,8.0,15.0,92,0.00,,,0.00,7.000000,,2013-11-21 22:23:00,
2013-11-21 16:33:00,29.0,27.0,-100.00,NNW,328,8.0,15.0,92,0.00,,,0.00,7.000000,,2013-11-21 22:33:00,
2013-11-21 16:43:00,29.0,27.0,-100.00,NNW,328,8.0,15.0,92,0.00,,,0.00,7.000000,,2013-11-21 22:43:00,
2013-11-21 16:53:00,29.0,27.0,-100.00,NNW,328,8.0,15.0,92,0.00,,,0.00,7.000000,,2013-11-21 22:53:00,
2013-11-21 17:01:00,28.0,26.0,-100.00,NNW,344,7.0,17.0,92,0.00,,,0.00,1.000000,,2013-11-21 23:01:00,
2013-11-21 17:22:00,28.0,26.0,-100.00,NNW,344,7.0,17.0,92,0.00,,,0.00,1.000000,,2013-11-21 23:22:00,
2013-11-21 17:33:00,28.0,26.0,-100.00,NNW,344,7.0,17.0,92,0.00,,,0.00,1.000000,,2013-11-21 23:33:00,
2013-11-21 17:42:00,28.0,26.0,-100.00,NNW,344,7.0,17.0,92,0.00,,,0.00,1.000000,,2013-11-21 23:42:00,
2013-11-21 17:53:00,28.0,26.0,-100.00,NNW,344,7.0,17.0,92,0.00,,,0.00,1.000000,,2013-11-21 23:53:00,
2013-11-21 18:01:00,27.0,25.0,-100.00,North,354,6.0,17.0,92,0.00,,,0.00,0.000000,,2013-11-22 00:01:00,
2013-11-21 18:22:00,27.0,25.0,-100.00,North,354,6.0,17.0,92,0.00,,,0.00,0.000000,,2013-11-22 00:22:00,
2013-11-21 18:32:00,27.0,25.0,-100.00,North,354,6.0,17.0,92,0.00,,,0.00,0.000000,,2013-11-22 00:32:00,
2013-11-21 18:42:00,27.0,25.0,-100.00,North,354,6.0,17.0,92,0.00,,,0.00,0.000000,,2013-11-22 00:42:00,
2013-11-21 18:52:00,27.0,25.0,-100.00,North,354,6.0,17.0,92,0.00,,,0.00,0.000000,,2013-11-22 00:52:00,
2013-11-21 19:01:00,27.0,25.0,-100.00,North,3,5.0,13.0,93,0.00,,,0.00,0.000000,,2013-11-22 01:01:00,
2013-11-21 19:22:00,27.0,25.0,-100.00,North,3,5.0,13.0,93,0.00,,,0.00,0.000000,,2013-11-22 01:22:00,
2013-11-21 19:32:00,27.0,25.0,-100.00,North,3,5.0,13.0,93,0.00,,,0.00,0.000000,,2013-11-22 01:32:00,
2013-11-21 19:42:00,27.0,25.0,-100.00,North,3,5.0,13.0,93,0.00,,,0.00,0.000000,,2013-11-22 01:42:00,
2013-11-21 19:52:00,27.0,25.0,-100.00,North,3,5.0,13.0,93,0.00,,,0.00,0.000000,,2013-11-22 01:52:00,
2013-11-21 20:01:00,26.0,24.0,-100.00,North,359,5.0,13.0,91,0.00,,,0.00,0.000000,,2013-11-22 02:01:00,
2013-11-21 20:22:00,26.0,24.0,-100.00,North,359,5.0,13.0,91,0.00,,,0.00,0.000000,,2013-11-22 02:22:00,
2013-11-21 20:32:00,26.0,24.0,-100.00,North,359,5.0,13.0,91,0.00,,,0.00,0.000000,,2013-11-22 02:32:00,
2013-11-21 20:42:00,26.0,24.0,-100.00,North,359,5.0,13.0,91,0.00,,,0.00,0.000000,,2013-11-22 02:42:00,
2013-11-21 20:53:00,26.0,24.0,-100.00,North,359,5.0,13.0,91,0.00,,,0.00,0.000000,,2013-11-22 02:53:00,
2013-11-21 21:01:00,26.0,24.0,-100.00,North,2,5.0,11.0,91,0.00,,,0.00,0.000000,,2013-11-22 03:01:00,
2013-11-21 21:22:00,26.0,24.0,-100.00,North,2,5.0,11.0,91,0.00,,,0.00,0.000000,,2013-11-22 03:22:00,
2013-11-21 21:33:00,26.0,24.0,-100.00,North,2,5.0,11.0,91,0.00,,,0.00,0.000000,,2013-11-22 03:33:00,
2013-11-21 21:43:00,26.0,24.0,-100.00,North,2,5.0,11.0,91,0.00,,,0.00,0.000000,,2013-11-22 03:43:00,
2013-11-21 21:54:00,26.0,24.0,-100.00,North,2,5.0,11.0,91,0.00,,,0.00,0.000000,,2013-11-22 03:54:00,
2013-11-21 22:01:00,25.0,22.0,-100.00,North,356,5.0,13.0,90,0.00,,,0.00,0.000000,,2013-11-22 04:01:00,
2013-11-21 22:23:00,25.0,22.0,-100.00,North,356,5.0,13.0,90,0.00,,,0.00,0.000000,,2013-11-22 04:23:00,
2013-11-21 22:33:00,25.0,22.0,-100.00,North,356,5.0,13.0,90,0.00,,,0.00,0.000000,,2013-11-22 04:33:00,
2013-11-21 22:43:00,25.0,22.0,-100.00,North,356,5.0,13.0,90,0.00,,,0.00,0.000000,,2013-11-22 04:43:00,
2013-11-21 22:53:00,25.0,22.0,-100.00,North,356,5.0,13.0,90,0.00,,,0.00,0.000000,,2013-11-22 04:53:00,
2013-11-21 23:01:00,24.0,21.0,-100.00,North,10,5.0,15.0,89,0.00,,,0.00,0.000000,,2013-11-22 05:01:00,
2013-11-21 23:22:00,24.0,21.0,-100.00,North,10,5.0,15.0,89,0.00,,,0.00,0.000000,,2013-11-22 05:22:00,
2013-11-21 23:32:00,24.0,21.0,-100.00,North,10,5.0,15.0,89,0.00,,,0.00,0.000000,,2013-11-22 05:32:00,
2013-11-21 23:43:00,24.0,21.0,-100.00,North,10,5.0,15.0,89,0.00,,,0.00,0.000000,,2013-11-22 05:43:00,
2013-11-21 23:53:00,24.0,21.0,-100.00,North,10,5.0,15.0,89,0.00,,,0.00,0.000000,,2013-11-22 05:53:00,